sensor_id;sensor_type;location;lat;lon;timestamp;temperature;humidity
13806;DHT22;6974;53.606;9.872;2022-12-18T00:00:45;-1.90;99.90
13806;DHT22;6974;53.606;9.872;2022-12-18T00:03:13;-1.90;99.90
13806;DHT22;6974;53.606;9.872;2022-12-18T00:05:48;-1.90;99.90
13806;DHT22;6974;53.606;9.872;2022-12-18T00:08:15;-2.00;99.90
13806;DHT22;6974;53.606;9.872;2022-12-18T00:10:43;-2.10;99.90
13806;DHT22;6974;53.606;9.872;2022-12-18T00:13:10;-2.10;99.90
13806;DHT22;6974;53.606;9.872;2022-12-18T00:15:39;-2.10;99.90
13806;DHT22;6974;53.606;9.872;2022-12-18T00:18:06;-2.10;99.90
13806;DHT22;6974;53.606;9.872;2022-12-18T00:20:36;-2.10;99.90
13806;DHT22;6974;53.606;9.872;2022-12-18T00:23:05;-2.10;99.90
13806;DHT22;6974;53.606;9.872;2022-12-18T00:25:34;-2.20;99.90
13806;DHT22;6974;53.606;9.872;2022-12-18T00:28:02;-2.30;99.90
13806;DHT22;6974;53.606;9.872;2022-12-18T00:30:31;-2.30;99.90
13806;DHT22;6974;53.606;9.872;2022-12-18T00:32:58;-2.20;99.90
13806;DHT22;6974;53.606;9.872;2022-12-18T00:35:25;-2.30;99.90
13806;DHT22;6974;53.606;9.872;2022-12-18T00:37:53;-2.20;99.90
13806;DHT22;6974;53.606;9.872;2022-12-18T00:40:22;-2.20;99.90
13806;DHT22;6974;53.606;9.872;2022-12-18T00:42:49;-2.20;99.90
13806;DHT22;6974;53.606;9.872;2022-12-18T00:45:21;-2.20;99.90
13806;DHT22;6974;53.606;9.872;2022-12-18T00:47:48;-2.30;99.90
13806;DHT22;6974;53.606;9.872;2022-12-18T00:50:15;-2.30;99.90
13806;DHT22;6974;53.606;9.872;2022-12-18T00:52:44;-2.40;99.90
13806;DHT22;6974;53.606;9.872;2022-12-18T00:55:11;-2.50;99.90
13806;DHT22;6974;53.606;9.872;2022-12-18T00:57:41;-2.50;99.90
13806;DHT22;6974;53.606;9.872;2022-12-18T01:00:11;-2.50;99.90
13806;DHT22;6974;53.606;9.872;2022-12-18T01:02:38;-2.50;99.90
13806;DHT22;6974;53.606;9.872;2022-12-18T01:05:06;-2.50;99.90
13806;DHT22;6974;53.606;9.872;2022-12-18T01:07:33;-2.40;99.90
13806;DHT22;6974;53.606;9.872;2022-12-18T01:10:01;-2.40;99.90
13806;DHT22;6974;53.606;9.872;2022-12-18T01:12:28;-2.50;99.90
13806;DHT22;6974;53.606;9.872;2022-12-18T01:14:56;-2.60;99.90
13806;DHT22;6974;53.606;9.872;2022-12-18T01:17:24;-2.60;99.90
13806;DHT22;6974;53.606;9.872;2022-12-18T01:19:51;-2.60;99.90
13806;DHT22;6974;53.606;9.872;2022-12-18T01:22:18;-2.60;99.90
13806;DHT22;6974;53.606;9.872;2022-12-18T01:24:45;-2.60;99.90
13806;DHT22;6974;53.606;9.872;2022-12-18T01:27:12;-2.60;99.90
13806;DHT22;6974;53.606;9.872;2022-12-18T01:29:39;-2.60;99.90
13806;DHT22;6974;53.606;9.872;2022-12-18T01:32:08;-2.60;99.90
13806;DHT22;6974;53.606;9.872;2022-12-18T01:34:35;-2.60;99.90
13806;DHT22;6974;53.606;9.872;2022-12-18T01:37:03;-2.70;99.90
13806;DHT22;6974;53.606;9.872;2022-12-18T01:39:30;-2.70;99.90
13806;DHT22;6974;53.606;9.872;2022-12-18T01:41:57;-2.80;99.90
13806;DHT22;6974;53.606;9.872;2022-12-18T01:44:57;-2.80;99.90
13806;DHT22;6974;53.606;9.872;2022-12-18T01:47:29;-2.70;99.90
13806;DHT22;6974;53.606;9.872;2022-12-18T01:49:58;-2.70;99.90
13806;DHT22;6974;53.606;9.872;2022-12-18T01:52:28;-2.80;99.90
13806;DHT22;6974;53.606;9.872;2022-12-18T01:54:56;-2.80;99.90
13806;DHT22;6974;53.606;9.872;2022-12-18T01:57:24;-2.80;99.90
13806;DHT22;6974;53.606;9.872;2022-12-18T01:59:53;-2.90;99.90
13806;DHT22;6974;53.606;9.872;2022-12-18T02:02:22;-2.90;99.90
13806;DHT22;6974;53.606;9.872;2022-12-18T02:04:52;-2.90;99.90
13806;DHT22;6974;53.606;9.872;2022-12-18T02:07:24;-2.80;99.90
13806;DHT22;6974;53.606;9.872;2022-12-18T02:09:57;-2.90;99.90
13806;DHT22;6974;53.606;9.872;2022-12-18T02:12:29;-2.90;99.90
13806;DHT22;6974;53.606;9.872;2022-12-18T02:15:02;-2.90;99.90
13806;DHT22;6974;53.606;9.872;2022-12-18T02:17:37;-3.00;99.90
13806;DHT22;6974;53.606;9.872;2022-12-18T02:20:13;-2.90;99.90
13806;DHT22;6974;53.606;9.872;2022-12-18T02:22:52;-2.90;99.90
13806;DHT22;6974;53.606;9.872;2022-12-18T02:25:32;-2.90;99.90
13806;DHT22;6974;53.606;9.872;2022-12-18T02:28:08;-2.90;99.90
13806;DHT22;6974;53.606;9.872;2022-12-18T02:30:37;-2.90;99.90
13806;DHT22;6974;53.606;9.872;2022-12-18T02:33:07;-2.90;99.90
13806;DHT22;6974;53.606;9.872;2022-12-18T02:35:36;-2.90;99.90
13806;DHT22;6974;53.606;9.872;2022-12-18T02:38:05;-3.00;99.90
13806;DHT22;6974;53.606;9.872;2022-12-18T02:40:33;-3.00;99.90
13806;DHT22;6974;53.606;9.872;2022-12-18T02:43:09;-2.90;99.90
13806;DHT22;6974;53.606;9.872;2022-12-18T02:45:45;-2.90;99.90
13806;DHT22;6974;53.606;9.872;2022-12-18T02:48:13;-3.00;99.90
13806;DHT22;6974;53.606;9.872;2022-12-18T02:50:45;-3.10;99.90
13806;DHT22;6974;53.606;9.872;2022-12-18T02:53:18;-3.10;99.90
13806;DHT22;6974;53.606;9.872;2022-12-18T02:55:55;-3.10;99.90
13806;DHT22;6974;53.606;9.872;2022-12-18T02:58:33;-3.20;99.90
13806;DHT22;6974;53.606;9.872;2022-12-18T03:01:06;-3.20;99.90
13806;DHT22;6974;53.606;9.872;2022-12-18T03:03:40;-3.10;99.90
13806;DHT22;6974;53.606;9.872;2022-12-18T03:06:12;-3.10;99.90
13806;DHT22;6974;53.606;9.872;2022-12-18T03:08:43;-3.10;99.90
13806;DHT22;6974;53.606;9.872;2022-12-18T03:11:12;-3.10;99.90
13806;DHT22;6974;53.606;9.872;2022-12-18T03:13:44;-3.10;99.90
13806;DHT22;6974;53.606;9.872;2022-12-18T03:16:17;-3.10;99.90
13806;DHT22;6974;53.606;9.872;2022-12-18T03:18:49;-3.20;99.90
13806;DHT22;6974;53.606;9.872;2022-12-18T03:21:20;-3.20;99.90
13806;DHT22;6974;53.606;9.872;2022-12-18T03:23:51;-3.20;99.90
13806;DHT22;6974;53.606;9.872;2022-12-18T03:26:23;-3.20;99.90
13806;DHT22;6974;53.606;9.872;2022-12-18T03:28:54;-3.20;99.90
13806;DHT22;6974;53.606;9.872;2022-12-18T03:31:23;-3.20;99.90
13806;DHT22;6974;53.606;9.872;2022-12-18T03:33:54;-3.30;99.90
13806;DHT22;6974;53.606;9.872;2022-12-18T03:36:23;-3.30;99.90
13806;DHT22;6974;53.606;9.872;2022-12-18T03:38:50;-3.30;99.90
13806;DHT22;6974;53.606;9.872;2022-12-18T03:41:22;-3.30;99.90
13806;DHT22;6974;53.606;9.872;2022-12-18T03:43:57;-3.30;99.90
13806;DHT22;6974;53.606;9.872;2022-12-18T03:46:29;-3.20;99.90
13806;DHT22;6974;53.606;9.872;2022-12-18T03:49:01;-3.20;99.90
13806;DHT22;6974;53.606;9.872;2022-12-18T03:51:34;-3.30;99.90
13806;DHT22;6974;53.606;9.872;2022-12-18T03:54:04;-3.30;99.90
13806;DHT22;6974;53.606;9.872;2022-12-18T03:56:35;-3.40;99.90
13806;DHT22;6974;53.606;9.872;2022-12-18T03:59:05;-3.30;99.90
13806;DHT22;6974;53.606;9.872;2022-12-18T04:01:48;-3.30;99.90
13806;DHT22;6974;53.606;9.872;2022-12-18T04:04:18;-3.30;99.90
13806;DHT22;6974;53.606;9.872;2022-12-18T04:06:46;-3.40;99.90
13806;DHT22;6974;53.606;9.872;2022-12-18T04:09:14;-3.40;99.90
13806;DHT22;6974;53.606;9.872;2022-12-18T04:11:41;-3.40;99.90
13806;DHT22;6974;53.606;9.872;2022-12-18T04:14:10;-3.40;99.90
13806;DHT22;6974;53.606;9.872;2022-12-18T04:16:37;-3.40;99.90
13806;DHT22;6974;53.606;9.872;2022-12-18T04:19:04;-3.40;99.90
13806;DHT22;6974;53.606;9.872;2022-12-18T04:21:31;-3.30;99.90
13806;DHT22;6974;53.606;9.872;2022-12-18T04:23:58;-3.40;99.90
13806;DHT22;6974;53.606;9.872;2022-12-18T04:26:25;-3.50;99.90
13806;DHT22;6974;53.606;9.872;2022-12-18T04:28:52;-3.50;99.90
13806;DHT22;6974;53.606;9.872;2022-12-18T04:31:20;-3.60;99.90
13806;DHT22;6974;53.606;9.872;2022-12-18T04:33:47;-3.60;99.90
13806;DHT22;6974;53.606;9.872;2022-12-18T04:36:14;-3.60;99.90
13806;DHT22;6974;53.606;9.872;2022-12-18T04:38:41;-3.70;99.90
13806;DHT22;6974;53.606;9.872;2022-12-18T04:41:08;-3.70;99.90
13806;DHT22;6974;53.606;9.872;2022-12-18T04:43:35;-3.70;99.90
13806;DHT22;6974;53.606;9.872;2022-12-18T04:46:03;-3.60;99.90
13806;DHT22;6974;53.606;9.872;2022-12-18T04:48:31;-3.70;99.90
13806;DHT22;6974;53.606;9.872;2022-12-18T04:50:58;-3.80;99.90
13806;DHT22;6974;53.606;9.872;2022-12-18T04:53:25;-3.80;99.90
13806;DHT22;6974;53.606;9.872;2022-12-18T04:56:02;-3.80;99.90
13806;DHT22;6974;53.606;9.872;2022-12-18T04:58:29;-3.80;99.90
13806;DHT22;6974;53.606;9.872;2022-12-18T05:00:56;-3.70;99.90
13806;DHT22;6974;53.606;9.872;2022-12-18T05:03:23;-3.70;99.90
13806;DHT22;6974;53.606;9.872;2022-12-18T05:05:52;-3.70;99.90
13806;DHT22;6974;53.606;9.872;2022-12-18T05:08:19;-3.70;99.90
13806;DHT22;6974;53.606;9.872;2022-12-18T05:10:46;-3.70;99.90
13806;DHT22;6974;53.606;9.872;2022-12-18T05:13:12;-3.70;99.90
13806;DHT22;6974;53.606;9.872;2022-12-18T05:15:39;-3.70;99.90
13806;DHT22;6974;53.606;9.872;2022-12-18T05:18:07;-3.80;99.90
13806;DHT22;6974;53.606;9.872;2022-12-18T05:20:34;-3.90;99.90
13806;DHT22;6974;53.606;9.872;2022-12-18T05:23:02;-3.80;99.90
13806;DHT22;6974;53.606;9.872;2022-12-18T05:25:29;-3.90;99.90
13806;DHT22;6974;53.606;9.872;2022-12-18T05:27:56;-3.80;99.90
13806;DHT22;6974;53.606;9.872;2022-12-18T05:30:23;-3.80;99.90
13806;DHT22;6974;53.606;9.872;2022-12-18T05:32:50;-3.80;99.90
13806;DHT22;6974;53.606;9.872;2022-12-18T05:35:17;-3.70;99.90
13806;DHT22;6974;53.606;9.872;2022-12-18T05:37:43;-3.70;99.90
13806;DHT22;6974;53.606;9.872;2022-12-18T05:40:12;-3.70;99.90
13806;DHT22;6974;53.606;9.872;2022-12-18T05:42:39;-3.60;99.90
13806;DHT22;6974;53.606;9.872;2022-12-18T05:45:06;-3.60;99.90
13806;DHT22;6974;53.606;9.872;2022-12-18T05:47:33;-3.50;99.90
13806;DHT22;6974;53.606;9.872;2022-12-18T05:50:00;-3.50;99.90
13806;DHT22;6974;53.606;9.872;2022-12-18T05:52:27;-3.40;99.90
13806;DHT22;6974;53.606;9.872;2022-12-18T05:54:54;-3.40;99.90
13806;DHT22;6974;53.606;9.872;2022-12-18T05:57:22;-3.40;99.90
13806;DHT22;6974;53.606;9.872;2022-12-18T05:59:49;-3.40;99.90
13806;DHT22;6974;53.606;9.872;2022-12-18T06:02:16;-3.40;99.90
13806;DHT22;6974;53.606;9.872;2022-12-18T06:04:43;-3.50;99.90
13806;DHT22;6974;53.606;9.872;2022-12-18T06:07:09;-3.50;99.90
13806;DHT22;6974;53.606;9.872;2022-12-18T06:09:36;-3.40;99.90
13806;DHT22;6974;53.606;9.872;2022-12-18T06:12:04;-3.40;99.90
13806;DHT22;6974;53.606;9.872;2022-12-18T06:14:32;-3.40;99.90
13806;DHT22;6974;53.606;9.872;2022-12-18T06:16:59;-3.40;99.90
13806;DHT22;6974;53.606;9.872;2022-12-18T06:19:26;-3.50;99.90
13806;DHT22;6974;53.606;9.872;2022-12-18T06:21:52;-3.50;99.90
13806;DHT22;6974;53.606;9.872;2022-12-18T06:24:19;-3.50;99.90
13806;DHT22;6974;53.606;9.872;2022-12-18T06:26:46;-3.50;99.90
13806;DHT22;6974;53.606;9.872;2022-12-18T06:29:13;-3.50;99.90
13806;DHT22;6974;53.606;9.872;2022-12-18T06:31:41;-3.40;99.90
13806;DHT22;6974;53.606;9.872;2022-12-18T06:34:08;-3.40;99.90
13806;DHT22;6974;53.606;9.872;2022-12-18T06:36:35;-3.40;99.90
13806;DHT22;6974;53.606;9.872;2022-12-18T06:39:02;-3.40;99.90
13806;DHT22;6974;53.606;9.872;2022-12-18T06:41:29;-3.40;99.90
13806;DHT22;6974;53.606;9.872;2022-12-18T06:43:55;-3.40;99.90
13806;DHT22;6974;53.606;9.872;2022-12-18T06:46:23;-3.40;99.90
13806;DHT22;6974;53.606;9.872;2022-12-18T06:48:51;-3.50;99.90
13806;DHT22;6974;53.606;9.872;2022-12-18T06:51:19;-3.40;99.90
13806;DHT22;6974;53.606;9.872;2022-12-18T06:53:46;-3.40;99.90
13806;DHT22;6974;53.606;9.872;2022-12-18T06:56:14;-3.40;99.90
13806;DHT22;6974;53.606;9.872;2022-12-18T06:58:40;-3.40;99.90
13806;DHT22;6974;53.606;9.872;2022-12-18T07:01:09;-3.40;99.90
13806;DHT22;6974;53.606;9.872;2022-12-18T07:03:36;-3.40;99.90
13806;DHT22;6974;53.606;9.872;2022-12-18T07:06:05;-3.40;99.90
13806;DHT22;6974;53.606;9.872;2022-12-18T07:08:32;-3.40;99.90
13806;DHT22;6974;53.606;9.872;2022-12-18T07:11:03;-3.40;99.90
13806;DHT22;6974;53.606;9.872;2022-12-18T07:13:30;-3.40;99.90
13806;DHT22;6974;53.606;9.872;2022-12-18T07:16:04;-3.40;99.90
13806;DHT22;6974;53.606;9.872;2022-12-18T07:18:31;-3.30;99.90
13806;DHT22;6974;53.606;9.872;2022-12-18T07:20:57;-3.40;99.90
13806;DHT22;6974;53.606;9.872;2022-12-18T07:23:26;-3.40;99.90
13806;DHT22;6974;53.606;9.872;2022-12-18T07:25:52;-3.40;99.90
13806;DHT22;6974;53.606;9.872;2022-12-18T07:28:19;-3.40;99.90
13806;DHT22;6974;53.606;9.872;2022-12-18T07:30:46;-3.40;99.90
13806;DHT22;6974;53.606;9.872;2022-12-18T07:33:13;-3.40;99.90
13806;DHT22;6974;53.606;9.872;2022-12-18T07:35:40;-3.50;99.90
13806;DHT22;6974;53.606;9.872;2022-12-18T07:38:07;-3.50;99.90
13806;DHT22;6974;53.606;9.872;2022-12-18T07:40:36;-3.40;99.90
13806;DHT22;6974;53.606;9.872;2022-12-18T07:43:03;-3.50;99.90
13806;DHT22;6974;53.606;9.872;2022-12-18T07:45:29;-3.50;99.90
13806;DHT22;6974;53.606;9.872;2022-12-18T07:47:56;-3.50;99.90
13806;DHT22;6974;53.606;9.872;2022-12-18T07:50:23;-3.50;99.90
13806;DHT22;6974;53.606;9.872;2022-12-18T07:52:50;-3.50;99.90
13806;DHT22;6974;53.606;9.872;2022-12-18T07:55:17;-3.40;99.90
13806;DHT22;6974;53.606;9.872;2022-12-18T07:57:45;-3.40;99.90
13806;DHT22;6974;53.606;9.872;2022-12-18T08:00:13;-3.30;99.90
13806;DHT22;6974;53.606;9.872;2022-12-18T08:02:40;-3.20;99.90
13806;DHT22;6974;53.606;9.872;2022-12-18T08:05:07;-3.10;99.90
13806;DHT22;6974;53.606;9.872;2022-12-18T08:07:34;-3.20;99.90
13806;DHT22;6974;53.606;9.872;2022-12-18T08:10:01;-3.20;99.90
13806;DHT22;6974;53.606;9.872;2022-12-18T08:12:28;-3.20;99.90
13806;DHT22;6974;53.606;9.872;2022-12-18T08:14:56;-3.20;99.90
13806;DHT22;6974;53.606;9.872;2022-12-18T08:17:23;-3.20;99.90
13806;DHT22;6974;53.606;9.872;2022-12-18T08:19:50;-3.20;99.90
13806;DHT22;6974;53.606;9.872;2022-12-18T08:22:17;-3.20;99.90
13806;DHT22;6974;53.606;9.872;2022-12-18T08:24:44;-3.10;99.90
13806;DHT22;6974;53.606;9.872;2022-12-18T08:27:11;-3.10;99.90
13806;DHT22;6974;53.606;9.872;2022-12-18T08:29:38;-3.00;99.90
13806;DHT22;6974;53.606;9.872;2022-12-18T08:32:06;-2.90;99.90
13806;DHT22;6974;53.606;9.872;2022-12-18T08:34:33;-2.80;99.90
13806;DHT22;6974;53.606;9.872;2022-12-18T08:37:00;-2.70;99.90
13806;DHT22;6974;53.606;9.872;2022-12-18T08:39:27;-2.60;99.90
13806;DHT22;6974;53.606;9.872;2022-12-18T08:41:54;-2.60;99.90
13806;DHT22;6974;53.606;9.872;2022-12-18T08:44:38;-2.50;99.90
13806;DHT22;6974;53.606;9.872;2022-12-18T08:47:07;-2.40;99.90
13806;DHT22;6974;53.606;9.872;2022-12-18T08:49:34;-2.40;99.90
13806;DHT22;6974;53.606;9.872;2022-12-18T08:52:01;-2.40;99.90
13806;DHT22;6974;53.606;9.872;2022-12-18T08:54:29;-2.30;99.90
13806;DHT22;6974;53.606;9.872;2022-12-18T08:56:56;-2.30;99.90
13806;DHT22;6974;53.606;9.872;2022-12-18T08:59:23;-2.30;99.90
13806;DHT22;6974;53.606;9.872;2022-12-18T09:01:50;-2.30;99.90
13806;DHT22;6974;53.606;9.872;2022-12-18T09:04:18;-2.30;99.90
13806;DHT22;6974;53.606;9.872;2022-12-18T09:06:45;-2.30;99.90
13806;DHT22;6974;53.606;9.872;2022-12-18T09:09:12;-2.20;99.90
13806;DHT22;6974;53.606;9.872;2022-12-18T09:11:39;-2.20;99.90
13806;DHT22;6974;53.606;9.872;2022-12-18T09:14:08;-2.10;99.90
13806;DHT22;6974;53.606;9.872;2022-12-18T09:16:36;-2.10;99.90
13806;DHT22;6974;53.606;9.872;2022-12-18T09:19:03;-2.00;99.90
13806;DHT22;6974;53.606;9.872;2022-12-18T09:21:34;-2.00;99.90
13806;DHT22;6974;53.606;9.872;2022-12-18T09:24:01;-1.90;99.90
13806;DHT22;6974;53.606;9.872;2022-12-18T09:26:28;-1.80;99.90
13806;DHT22;6974;53.606;9.872;2022-12-18T09:28:56;-1.80;99.90
13806;DHT22;6974;53.606;9.872;2022-12-18T09:31:24;-1.70;99.90
13806;DHT22;6974;53.606;9.872;2022-12-18T09:33:51;-1.60;99.90
13806;DHT22;6974;53.606;9.872;2022-12-18T09:36:18;-1.50;99.90
13806;DHT22;6974;53.606;9.872;2022-12-18T09:38:47;-1.40;99.90
13806;DHT22;6974;53.606;9.872;2022-12-18T09:41:25;-1.40;99.90
13806;DHT22;6974;53.606;9.872;2022-12-18T09:43:58;-1.30;99.90
13806;DHT22;6974;53.606;9.872;2022-12-18T09:46:29;-1.20;99.90
13806;DHT22;6974;53.606;9.872;2022-12-18T09:48:59;-1.00;99.90
13806;DHT22;6974;53.606;9.872;2022-12-18T09:51:28;-0.90;99.90
13806;DHT22;6974;53.606;9.872;2022-12-18T09:54:01;-0.80;99.90
13806;DHT22;6974;53.606;9.872;2022-12-18T09:56:34;-0.70;99.90
13806;DHT22;6974;53.606;9.872;2022-12-18T09:59:03;-0.60;99.90
13806;DHT22;6974;53.606;9.872;2022-12-18T10:01:32;-0.60;99.90
13806;DHT22;6974;53.606;9.872;2022-12-18T10:03:59;-0.60;99.90
13806;DHT22;6974;53.606;9.872;2022-12-18T10:06:31;-0.50;99.90
13806;DHT22;6974;53.606;9.872;2022-12-18T10:09:08;-0.50;99.90
13806;DHT22;6974;53.606;9.872;2022-12-18T10:11:43;-0.40;99.90
13806;DHT22;6974;53.606;9.872;2022-12-18T10:14:18;-0.40;99.90
13806;DHT22;6974;53.606;9.872;2022-12-18T10:16:55;-0.40;99.90
13806;DHT22;6974;53.606;9.872;2022-12-18T10:19:36;-0.40;99.90
13806;DHT22;6974;53.606;9.872;2022-12-18T10:22:14;-0.40;99.90
13806;DHT22;6974;53.606;9.872;2022-12-18T10:24:50;-0.40;99.90
13806;DHT22;6974;53.606;9.872;2022-12-18T10:27:23;-0.30;99.90
13806;DHT22;6974;53.606;9.872;2022-12-18T10:29:51;-0.30;99.90
13806;DHT22;6974;53.606;9.872;2022-12-18T10:32:20;-0.30;99.90
13806;DHT22;6974;53.606;9.872;2022-12-18T10:34:48;-0.20;99.90
13806;DHT22;6974;53.606;9.872;2022-12-18T10:37:17;-0.10;99.90
13806;DHT22;6974;53.606;9.872;2022-12-18T10:39:46;-0.10;99.90
13806;DHT22;6974;53.606;9.872;2022-12-18T10:42:30;0.00;99.90
13806;DHT22;6974;53.606;9.872;2022-12-18T10:45:02;0.00;99.90
13806;DHT22;6974;53.606;9.872;2022-12-18T10:47:30;0.00;99.90
13806;DHT22;6974;53.606;9.872;2022-12-18T10:49:57;0.10;99.90
13806;DHT22;6974;53.606;9.872;2022-12-18T10:52:25;0.10;99.90
13806;DHT22;6974;53.606;9.872;2022-12-18T10:54:55;0.10;99.90
13806;DHT22;6974;53.606;9.872;2022-12-18T10:57:32;0.30;99.90
13806;DHT22;6974;53.606;9.872;2022-12-18T11:00:22;0.30;99.90
13806;DHT22;6974;53.606;9.872;2022-12-18T11:02:49;0.40;99.90
13806;DHT22;6974;53.606;9.872;2022-12-18T11:05:27;0.60;99.90
13806;DHT22;6974;53.606;9.872;2022-12-18T11:07:56;0.70;99.90
13806;DHT22;6974;53.606;9.872;2022-12-18T11:10:28;0.80;99.90
13806;DHT22;6974;53.606;9.872;2022-12-18T11:12:55;0.90;99.90
13806;DHT22;6974;53.606;9.872;2022-12-18T11:15:26;1.00;99.90
13806;DHT22;6974;53.606;9.872;2022-12-18T11:17:55;1.00;99.90
13806;DHT22;6974;53.606;9.872;2022-12-18T11:20:29;1.00;99.90
13806;DHT22;6974;53.606;9.872;2022-12-18T11:22:59;1.00;99.90
13806;DHT22;6974;53.606;9.872;2022-12-18T11:25:29;1.00;99.90
13806;DHT22;6974;53.606;9.872;2022-12-18T11:27:58;1.00;99.90
13806;DHT22;6974;53.606;9.872;2022-12-18T11:30:27;1.00;99.90
13806;DHT22;6974;53.606;9.872;2022-12-18T11:33:01;0.90;99.90
13806;DHT22;6974;53.606;9.872;2022-12-18T11:35:40;0.90;99.90
13806;DHT22;6974;53.606;9.872;2022-12-18T11:38:15;0.90;99.90
13806;DHT22;6974;53.606;9.872;2022-12-18T11:40:48;0.90;99.90
13806;DHT22;6974;53.606;9.872;2022-12-18T11:43:20;0.90;99.90
13806;DHT22;6974;53.606;9.872;2022-12-18T11:45:53;1.00;99.90
13806;DHT22;6974;53.606;9.872;2022-12-18T11:48:23;0.90;99.90
13806;DHT22;6974;53.606;9.872;2022-12-18T11:50:53;1.00;99.90
13806;DHT22;6974;53.606;9.872;2022-12-18T11:53:22;1.10;99.90
13806;DHT22;6974;53.606;9.872;2022-12-18T11:56:02;1.10;99.90
13806;DHT22;6974;53.606;9.872;2022-12-18T11:58:43;1.20;99.90
13806;DHT22;6974;53.606;9.872;2022-12-18T12:01:19;1.20;99.90
13806;DHT22;6974;53.606;9.872;2022-12-18T12:04:07;1.20;99.90
13806;DHT22;6974;53.606;9.872;2022-12-18T12:06:44;1.20;99.90
13806;DHT22;6974;53.606;9.872;2022-12-18T12:09:18;1.20;99.90
13806;DHT22;6974;53.606;9.872;2022-12-18T12:11:56;1.20;99.90
13806;DHT22;6974;53.606;9.872;2022-12-18T12:14:38;1.20;99.90
13806;DHT22;6974;53.606;9.872;2022-12-18T12:17:16;1.20;99.90
13806;DHT22;6974;53.606;9.872;2022-12-18T12:19:51;1.10;99.90
13806;DHT22;6974;53.606;9.872;2022-12-18T12:22:26;1.00;99.90
13806;DHT22;6974;53.606;9.872;2022-12-18T12:25:12;0.90;99.90
13806;DHT22;6974;53.606;9.872;2022-12-18T12:27:49;0.90;99.90
13806;DHT22;6974;53.606;9.872;2022-12-18T12:30:22;0.90;99.90
13806;DHT22;6974;53.606;9.872;2022-12-18T12:33:02;0.80;99.90
13806;DHT22;6974;53.606;9.872;2022-12-18T12:35:42;0.80;99.90
13806;DHT22;6974;53.606;9.872;2022-12-18T12:38:13;0.80;99.90
13806;DHT22;6974;53.606;9.872;2022-12-18T12:40:44;0.70;99.90
13806;DHT22;6974;53.606;9.872;2022-12-18T12:43:22;0.70;99.90
13806;DHT22;6974;53.606;9.872;2022-12-18T12:45:53;0.70;99.90
13806;DHT22;6974;53.606;9.872;2022-12-18T12:48:31;0.70;99.90
13806;DHT22;6974;53.606;9.872;2022-12-18T12:51:00;0.80;99.90
13806;DHT22;6974;53.606;9.872;2022-12-18T12:53:32;0.70;99.90
13806;DHT22;6974;53.606;9.872;2022-12-18T12:56:01;0.70;99.90
13806;DHT22;6974;53.606;9.872;2022-12-18T12:58:36;0.70;99.90
13806;DHT22;6974;53.606;9.872;2022-12-18T13:01:12;0.70;99.90
13806;DHT22;6974;53.606;9.872;2022-12-18T13:03:52;0.70;99.90
13806;DHT22;6974;53.606;9.872;2022-12-18T13:06:28;0.70;99.90
13806;DHT22;6974;53.606;9.872;2022-12-18T13:09:00;0.80;99.90
13806;DHT22;6974;53.606;9.872;2022-12-18T13:11:39;0.70;99.90
13806;DHT22;6974;53.606;9.872;2022-12-18T13:14:28;0.70;99.90
13806;DHT22;6974;53.606;9.872;2022-12-18T13:17:16;0.70;99.90
13806;DHT22;6974;53.606;9.872;2022-12-18T13:19:43;0.70;99.90
13806;DHT22;6974;53.606;9.872;2022-12-18T13:22:21;0.70;99.90
13806;DHT22;6974;53.606;9.872;2022-12-18T13:24:48;0.70;99.90
13806;DHT22;6974;53.606;9.872;2022-12-18T13:30:42;0.70;99.90
13806;DHT22;6974;53.606;9.872;2022-12-18T13:33:38;0.60;99.90
13806;DHT22;6974;53.606;9.872;2022-12-18T13:36:13;0.60;99.90
13806;DHT22;6974;53.606;9.872;2022-12-18T13:38:41;0.60;99.90
13806;DHT22;6974;53.606;9.872;2022-12-18T13:41:23;0.60;99.90
13806;DHT22;6974;53.606;9.872;2022-12-18T13:43:52;0.60;99.90
13806;DHT22;6974;53.606;9.872;2022-12-18T13:46:27;0.60;99.90
13806;DHT22;6974;53.606;9.872;2022-12-18T13:48:57;0.50;99.90
13806;DHT22;6974;53.606;9.872;2022-12-18T13:51:27;0.50;99.90
13806;DHT22;6974;53.606;9.872;2022-12-18T13:53:56;0.50;99.90
13806;DHT22;6974;53.606;9.872;2022-12-18T13:56:26;0.40;99.90
13806;DHT22;6974;53.606;9.872;2022-12-18T13:59:15;0.40;99.90
13806;DHT22;6974;53.606;9.872;2022-12-18T14:01:44;0.30;99.90
13806;DHT22;6974;53.606;9.872;2022-12-18T14:04:17;0.30;99.90
13806;DHT22;6974;53.606;9.872;2022-12-18T14:06:45;0.30;99.90
13806;DHT22;6974;53.606;9.872;2022-12-18T14:09:14;0.30;99.90
13806;DHT22;6974;53.606;9.872;2022-12-18T14:11:46;0.10;99.90
13806;DHT22;6974;53.606;9.872;2022-12-18T14:14:14;0.10;99.90
13806;DHT22;6974;53.606;9.872;2022-12-18T14:16:41;0.10;99.90
13806;DHT22;6974;53.606;9.872;2022-12-18T14:19:13;0.10;99.90
13806;DHT22;6974;53.606;9.872;2022-12-18T14:21:45;0.10;99.90
13806;DHT22;6974;53.606;9.872;2022-12-18T14:24:14;0.00;99.90
13806;DHT22;6974;53.606;9.872;2022-12-18T14:26:42;-0.10;99.90
13806;DHT22;6974;53.606;9.872;2022-12-18T14:29:22;-0.10;99.90
13806;DHT22;6974;53.606;9.872;2022-12-18T14:32:10;-0.20;99.90
13806;DHT22;6974;53.606;9.872;2022-12-18T14:34:41;-0.30;99.90
13806;DHT22;6974;53.606;9.872;2022-12-18T14:37:10;-0.30;99.90
13806;DHT22;6974;53.606;9.872;2022-12-18T14:39:37;-0.40;99.90
13806;DHT22;6974;53.606;9.872;2022-12-18T14:42:04;-0.40;99.90
13806;DHT22;6974;53.606;9.872;2022-12-18T14:44:31;-0.40;99.90
13806;DHT22;6974;53.606;9.872;2022-12-18T14:46:58;-0.40;99.90
13806;DHT22;6974;53.606;9.872;2022-12-18T14:49:29;-0.40;99.90
13806;DHT22;6974;53.606;9.872;2022-12-18T14:51:58;-0.40;99.90
13806;DHT22;6974;53.606;9.872;2022-12-18T14:54:26;-0.50;99.90
13806;DHT22;6974;53.606;9.872;2022-12-18T14:56:58;-0.40;99.90
13806;DHT22;6974;53.606;9.872;2022-12-18T14:59:27;-0.40;99.90
13806;DHT22;6974;53.606;9.872;2022-12-18T15:01:59;-0.50;99.90
13806;DHT22;6974;53.606;9.872;2022-12-18T15:04:29;-0.50;99.90
13806;DHT22;6974;53.606;9.872;2022-12-18T15:07:11;-0.50;99.90
13806;DHT22;6974;53.606;9.872;2022-12-18T15:09:40;-0.50;99.90
13806;DHT22;6974;53.606;9.872;2022-12-18T15:12:22;-0.50;99.90
13806;DHT22;6974;53.606;9.872;2022-12-18T15:14:51;-0.50;99.90
13806;DHT22;6974;53.606;9.872;2022-12-18T15:17:20;-0.50;99.90
13806;DHT22;6974;53.606;9.872;2022-12-18T15:19:48;-0.50;99.90
13806;DHT22;6974;53.606;9.872;2022-12-18T15:22:26;-0.50;99.90
13806;DHT22;6974;53.606;9.872;2022-12-18T15:24:54;-0.60;99.90
13806;DHT22;6974;53.606;9.872;2022-12-18T15:27:24;-0.60;99.90
13806;DHT22;6974;53.606;9.872;2022-12-18T15:30:17;-0.70;99.90
13806;DHT22;6974;53.606;9.872;2022-12-18T15:32:44;-0.70;99.90
13806;DHT22;6974;53.606;9.872;2022-12-18T15:35:16;-0.70;99.90
13806;DHT22;6974;53.606;9.872;2022-12-18T15:37:44;-0.80;99.90
13806;DHT22;6974;53.606;9.872;2022-12-18T15:40:12;-0.80;99.90
13806;DHT22;6974;53.606;9.872;2022-12-18T15:42:40;-0.80;99.90
13806;DHT22;6974;53.606;9.872;2022-12-18T15:45:24;-0.70;99.90
13806;DHT22;6974;53.606;9.872;2022-12-18T15:47:51;-0.80;99.90
13806;DHT22;6974;53.606;9.872;2022-12-18T15:50:18;-0.70;99.90
13806;DHT22;6974;53.606;9.872;2022-12-18T15:52:48;-0.80;99.90
13806;DHT22;6974;53.606;9.872;2022-12-18T15:55:18;-0.80;99.90
13806;DHT22;6974;53.606;9.872;2022-12-18T15:58:03;-0.80;99.90
13806;DHT22;6974;53.606;9.872;2022-12-18T16:00:31;-0.90;99.90
13806;DHT22;6974;53.606;9.872;2022-12-18T16:02:58;-0.80;99.90
13806;DHT22;6974;53.606;9.872;2022-12-18T16:05:26;-0.80;99.90
13806;DHT22;6974;53.606;9.872;2022-12-18T16:07:54;-0.80;99.90
13806;DHT22;6974;53.606;9.872;2022-12-18T16:10:21;-0.80;99.90
13806;DHT22;6974;53.606;9.872;2022-12-18T16:12:49;-0.80;99.90